sensor_id;sensor_type;location;lat;lon;timestamp;P1;durP1;ratioP1;P2;durP2;ratioP2
18449;SDS011;9354;50.194;7.690;2024-01-25T00:00:40;33.00;;;4.33;;
18449;SDS011;9354;50.194;7.690;2024-01-25T00:03:07;20.07;;;3.80;;
18449;SDS011;9354;50.194;7.690;2024-01-25T00:05:35;25.20;;;3.67;;
18449;SDS011;9354;50.194;7.690;2024-01-25T00:08:02;25.23;;;3.67;;
18449;SDS011;9354;50.194;7.690;2024-01-25T00:10:30;24.33;;;3.53;;
18449;SDS011;9354;50.194;7.690;2024-01-25T00:12:59;24.77;;;3.67;;
18449;SDS011;9354;50.194;7.690;2024-01-25T00:15:27;30.43;;;3.80;;
18449;SDS011;9354;50.194;7.690;2024-01-25T00:17:54;28.27;;;3.50;;
18449;SDS011;9354;50.194;7.690;2024-01-25T00:20:22;25.33;;;3.50;;
18449;SDS011;9354;50.194;7.690;2024-01-25T00:22:50;33.03;;;3.57;;
18449;SDS011;9354;50.194;7.690;2024-01-25T00:25:17;25.90;;;3.63;;
18449;SDS011;9354;50.194;7.690;2024-01-25T00:27:45;31.30;;;3.70;;
18449;SDS011;9354;50.194;7.690;2024-01-25T00:30:14;26.90;;;3.27;;
18449;SDS011;9354;50.194;7.690;2024-01-25T00:32:41;31.87;;;3.87;;
18449;SDS011;9354;50.194;7.690;2024-01-25T00:35:09;28.33;;;3.30;;
18449;SDS011;9354;50.194;7.690;2024-01-25T00:37:39;23.20;;;4.10;;
18449;SDS011;9354;50.194;7.690;2024-01-25T00:40:07;29.63;;;3.57;;
18449;SDS011;9354;50.194;7.690;2024-01-25T00:42:37;20.77;;;4.03;;
18449;SDS011;9354;50.194;7.690;2024-01-25T00:45:09;26.87;;;5.10;;
18449;SDS011;9354;50.194;7.690;2024-01-25T00:47:39;23.63;;;3.23;;
18449;SDS011;9354;50.194;7.690;2024-01-25T00:50:07;29.37;;;3.90;;
18449;SDS011;9354;50.194;7.690;2024-01-25T00:52:34;21.93;;;3.27;;
18449;SDS011;9354;50.194;7.690;2024-01-25T00:55:03;23.63;;;3.53;;
18449;SDS011;9354;50.194;7.690;2024-01-25T00:57:31;22.27;;;3.03;;
18449;SDS011;9354;50.194;7.690;2024-01-25T00:59:59;19.70;;;3.07;;
18449;SDS011;9354;50.194;7.690;2024-01-25T01:02:28;31.53;;;3.83;;
18449;SDS011;9354;50.194;7.690;2024-01-25T01:04:59;23.70;;;4.10;;
18449;SDS011;9354;50.194;7.690;2024-01-25T01:07:27;24.77;;;2.87;;
18449;SDS011;9354;50.194;7.690;2024-01-25T01:09:54;27.37;;;3.33;;
18449;SDS011;9354;50.194;7.690;2024-01-25T01:12:22;27.93;;;3.83;;
18449;SDS011;9354;50.194;7.690;2024-01-25T01:14:49;24.13;;;3.23;;
18449;SDS011;9354;50.194;7.690;2024-01-25T01:17:16;29.50;;;4.37;;
18449;SDS011;9354;50.194;7.690;2024-01-25T01:19:44;28.30;;;3.27;;
18449;SDS011;9354;50.194;7.690;2024-01-25T01:22:13;21.53;;;3.17;;
18449;SDS011;9354;50.194;7.690;2024-01-25T01:24:40;19.90;;;3.10;;
18449;SDS011;9354;50.194;7.690;2024-01-25T01:27:08;27.67;;;4.07;;
18449;SDS011;9354;50.194;7.690;2024-01-25T01:29:35;30.13;;;4.27;;
18449;SDS011;9354;50.194;7.690;2024-01-25T01:32:03;22.00;;;3.33;;
18449;SDS011;9354;50.194;7.690;2024-01-25T01:34:30;23.97;;;3.73;;
18449;SDS011;9354;50.194;7.690;2024-01-25T01:36:58;25.73;;;3.37;;
18449;SDS011;9354;50.194;7.690;2024-01-25T01:39:26;31.60;;;3.80;;
18449;SDS011;9354;50.194;7.690;2024-01-25T01:41:54;30.60;;;3.10;;
18449;SDS011;9354;50.194;7.690;2024-01-25T01:44:21;25.20;;;3.30;;
18449;SDS011;9354;50.194;7.690;2024-01-25T01:46:49;26.83;;;3.47;;
18449;SDS011;9354;50.194;7.690;2024-01-25T01:49:16;21.67;;;3.33;;
18449;SDS011;9354;50.194;7.690;2024-01-25T01:51:44;31.23;;;3.50;;
18449;SDS011;9354;50.194;7.690;2024-01-25T01:54:12;31.63;;;3.80;;
18449;SDS011;9354;50.194;7.690;2024-01-25T01:56:41;25.10;;;3.03;;
18449;SDS011;9354;50.194;7.690;2024-01-25T01:59:10;19.53;;;3.13;;
18449;SDS011;9354;50.194;7.690;2024-01-25T02:01:38;39.17;;;3.93;;
18449;SDS011;9354;50.194;7.690;2024-01-25T02:04:05;24.57;;;4.37;;
18449;SDS011;9354;50.194;7.690;2024-01-25T02:06:33;33.47;;;5.40;;
18449;SDS011;9354;50.194;7.690;2024-01-25T02:09:00;23.83;;;3.80;;
18449;SDS011;9354;50.194;7.690;2024-01-25T02:11:28;28.83;;;4.03;;
18449;SDS011;9354;50.194;7.690;2024-01-25T02:13:57;28.17;;;3.07;;
18449;SDS011;9354;50.194;7.690;2024-01-25T02:16:24;25.13;;;3.50;;
18449;SDS011;9354;50.194;7.690;2024-01-25T02:18:52;25.43;;;2.90;;
18449;SDS011;9354;50.194;7.690;2024-01-25T02:21:22;24.57;;;3.03;;
18449;SDS011;9354;50.194;7.690;2024-01-25T02:23:51;32.40;;;5.20;;
18449;SDS011;9354;50.194;7.690;2024-01-25T02:26:18;23.17;;;3.47;;
18449;SDS011;9354;50.194;7.690;2024-01-25T02:28:46;26.03;;;3.60;;
18449;SDS011;9354;50.194;7.690;2024-01-25T02:31:13;31.97;;;4.10;;
18449;SDS011;9354;50.194;7.690;2024-01-25T02:33:41;23.80;;;3.67;;
18449;SDS011;9354;50.194;7.690;2024-01-25T02:36:08;19.83;;;3.37;;
18449;SDS011;9354;50.194;7.690;2024-01-25T02:38:35;28.70;;;3.50;;
18449;SDS011;9354;50.194;7.690;2024-01-25T02:41:04;25.43;;;4.07;;
18449;SDS011;9354;50.194;7.690;2024-01-25T02:43:32;30.30;;;4.33;;
18449;SDS011;9354;50.194;7.690;2024-01-25T02:45:59;30.43;;;4.77;;
18449;SDS011;9354;50.194;7.690;2024-01-25T02:48:27;32.40;;;4.00;;
18449;SDS011;9354;50.194;7.690;2024-01-25T02:50:54;22.30;;;3.47;;
18449;SDS011;9354;50.194;7.690;2024-01-25T02:53:21;20.97;;;3.17;;
18449;SDS011;9354;50.194;7.690;2024-01-25T02:55:49;30.63;;;4.73;;
18449;SDS011;9354;50.194;7.690;2024-01-25T02:58:18;26.60;;;3.73;;
18449;SDS011;9354;50.194;7.690;2024-01-25T03:00:46;22.70;;;3.73;;
18449;SDS011;9354;50.194;7.690;2024-01-25T03:03:13;21.80;;;3.37;;
18449;SDS011;9354;50.194;7.690;2024-01-25T03:05:40;22.30;;;3.53;;
18449;SDS011;9354;50.194;7.690;2024-01-25T03:08:08;33.93;;;4.03;;
18449;SDS011;9354;50.194;7.690;2024-01-25T03:10:35;25.43;;;4.10;;
18449;SDS011;9354;50.194;7.690;2024-01-25T03:13:03;27.23;;;4.27;;
18449;SDS011;9354;50.194;7.690;2024-01-25T03:15:32;30.70;;;4.73;;
18449;SDS011;9354;50.194;7.690;2024-01-25T03:17:59;25.20;;;3.37;;
18449;SDS011;9354;50.194;7.690;2024-01-25T03:20:27;31.90;;;3.90;;
18449;SDS011;9354;50.194;7.690;2024-01-25T03:22:54;31.97;;;3.87;;
18449;SDS011;9354;50.194;7.690;2024-01-25T03:25:21;35.47;;;3.70;;
18449;SDS011;9354;50.194;7.690;2024-01-25T03:27:49;33.77;;;3.83;;
18449;SDS011;9354;50.194;7.690;2024-01-25T03:30:16;23.00;;;3.63;;
18449;SDS011;9354;50.194;7.690;2024-01-25T03:32:46;23.17;;;3.77;;
18449;SDS011;9354;50.194;7.690;2024-01-25T03:35:14;33.23;;;4.27;;
18449;SDS011;9354;50.194;7.690;2024-01-25T03:37:41;23.40;;;3.87;;
18449;SDS011;9354;50.194;7.690;2024-01-25T03:40:09;28.83;;;4.00;;
18449;SDS011;9354;50.194;7.690;2024-01-25T03:42:37;26.37;;;3.20;;
18449;SDS011;9354;50.194;7.690;2024-01-25T03:45:04;20.73;;;3.10;;
18449;SDS011;9354;50.194;7.690;2024-01-25T03:47:33;36.13;;;4.63;;
18449;SDS011;9354;50.194;7.690;2024-01-25T03:50:01;26.53;;;3.37;;
18449;SDS011;9354;50.194;7.690;2024-01-25T03:52:29;24.80;;;4.73;;
18449;SDS011;9354;50.194;7.690;2024-01-25T03:54:56;35.93;;;4.33;;
18449;SDS011;9354;50.194;7.690;2024-01-25T03:57:24;28.97;;;3.90;;
18449;SDS011;9354;50.194;7.690;2024-01-25T03:59:51;25.80;;;4.23;;
18449;SDS011;9354;50.194;7.690;2024-01-25T04:02:19;27.43;;;3.37;;
18449;SDS011;9354;50.194;7.690;2024-01-25T04:04:46;32.47;;;4.20;;
18449;SDS011;9354;50.194;7.690;2024-01-25T04:07:15;38.27;;;4.00;;
18449;SDS011;9354;50.194;7.690;2024-01-25T04:09:42;27.03;;;4.53;;
18449;SDS011;9354;50.194;7.690;2024-01-25T04:12:09;30.40;;;4.57;;
18449;SDS011;9354;50.194;7.690;2024-01-25T04:14:37;26.13;;;3.87;;
18449;SDS011;9354;50.194;7.690;2024-01-25T04:17:04;27.10;;;4.20;;
18449;SDS011;9354;50.194;7.690;2024-01-25T04:19:31;28.83;;;3.93;;
18449;SDS011;9354;50.194;7.690;2024-01-25T04:21:59;29.20;;;4.67;;
18449;SDS011;9354;50.194;7.690;2024-01-25T04:24:28;24.67;;;3.30;;
18449;SDS011;9354;50.194;7.690;2024-01-25T04:26:55;37.23;;;4.40;;
18449;SDS011;9354;50.194;7.690;2024-01-25T04:29:23;33.53;;;3.77;;
18449;SDS011;9354;50.194;7.690;2024-01-25T04:31:50;26.40;;;3.17;;
18449;SDS011;9354;50.194;7.690;2024-01-25T04:34:18;32.30;;;4.33;;
18449;SDS011;9354;50.194;7.690;2024-01-25T04:36:45;21.10;;;3.57;;
18449;SDS011;9354;50.194;7.690;2024-01-25T04:39:12;22.23;;;3.33;;
18449;SDS011;9354;50.194;7.690;2024-01-25T04:41:42;27.60;;;4.07;;
18449;SDS011;9354;50.194;7.690;2024-01-25T04:44:09;32.60;;;4.20;;
18449;SDS011;9354;50.194;7.690;2024-01-25T04:46:37;24.47;;;3.60;;
18449;SDS011;9354;50.194;7.690;2024-01-25T04:49:04;26.47;;;3.73;;
18449;SDS011;9354;50.194;7.690;2024-01-25T04:51:32;23.60;;;3.50;;
18449;SDS011;9354;50.194;7.690;2024-01-25T04:54:00;29.50;;;4.60;;
18449;SDS011;9354;50.194;7.690;2024-01-25T04:56:28;29.70;;;4.23;;
18449;SDS011;9354;50.194;7.690;2024-01-25T04:58:56;32.27;;;5.47;;
18449;SDS011;9354;50.194;7.690;2024-01-25T05:01:24;24.57;;;3.63;;
18449;SDS011;9354;50.194;7.690;2024-01-25T05:03:51;27.87;;;3.57;;
18449;SDS011;9354;50.194;7.690;2024-01-25T05:06:21;21.43;;;3.27;;
18449;SDS011;9354;50.194;7.690;2024-01-25T05:08:49;26.83;;;3.47;;
18449;SDS011;9354;50.194;7.690;2024-01-25T05:11:16;22.63;;;3.77;;
18449;SDS011;9354;50.194;7.690;2024-01-25T05:13:43;32.07;;;4.00;;
18449;SDS011;9354;50.194;7.690;2024-01-25T05:16:12;24.07;;;3.07;;
18449;SDS011;9354;50.194;7.690;2024-01-25T05:18:40;32.20;;;3.93;;
18449;SDS011;9354;50.194;7.690;2024-01-25T05:21:08;31.33;;;3.90;;
18449;SDS011;9354;50.194;7.690;2024-01-25T05:23:35;36.93;;;5.03;;
18449;SDS011;9354;50.194;7.690;2024-01-25T05:26:02;38.70;;;3.97;;
18449;SDS011;9354;50.194;7.690;2024-01-25T05:28:30;25.53;;;4.03;;
18449;SDS011;9354;50.194;7.690;2024-01-25T05:30:58;35.83;;;4.60;;
18449;SDS011;9354;50.194;7.690;2024-01-25T05:33:27;31.53;;;5.13;;
18449;SDS011;9354;50.194;7.690;2024-01-25T05:35:54;28.80;;;4.23;;
18449;SDS011;9354;50.194;7.690;2024-01-25T05:38:21;33.43;;;5.43;;
18449;SDS011;9354;50.194;7.690;2024-01-25T05:40:49;24.60;;;4.00;;
18449;SDS011;9354;50.194;7.690;2024-01-25T05:43:16;32.63;;;4.33;;
18449;SDS011;9354;50.194;7.690;2024-01-25T05:45:44;32.77;;;3.83;;
18449;SDS011;9354;50.194;7.690;2024-01-25T05:48:12;37.27;;;6.07;;
18449;SDS011;9354;50.194;7.690;2024-01-25T05:50:41;15.37;;;3.00;;
18449;SDS011;9354;50.194;7.690;2024-01-25T05:53:08;21.53;;;3.47;;
18449;SDS011;9354;50.194;7.690;2024-01-25T05:55:36;23.40;;;3.83;;
18449;SDS011;9354;50.194;7.690;2024-01-25T05:58:03;33.80;;;3.93;;
18449;SDS011;9354;50.194;7.690;2024-01-25T06:00:31;24.93;;;4.57;;
18449;SDS011;9354;50.194;7.690;2024-01-25T06:02:58;26.30;;;4.67;;
18449;SDS011;9354;50.194;7.690;2024-01-25T06:05:25;36.60;;;4.17;;
18449;SDS011;9354;50.194;7.690;2024-01-25T06:07:54;22.13;;;3.43;;
18449;SDS011;9354;50.194;7.690;2024-01-25T06:10:22;28.23;;;3.87;;
18449;SDS011;9354;50.194;7.690;2024-01-25T06:12:49;25.07;;;4.43;;
18449;SDS011;9354;50.194;7.690;2024-01-25T06:15:16;34.23;;;5.10;;
18449;SDS011;9354;50.194;7.690;2024-01-25T06:17:44;26.73;;;4.87;;
18449;SDS011;9354;50.194;7.690;2024-01-25T06:20:11;27.60;;;3.27;;
18449;SDS011;9354;50.194;7.690;2024-01-25T06:22:39;40.17;;;5.43;;
18449;SDS011;9354;50.194;7.690;2024-01-25T06:25:08;26.13;;;3.60;;
18449;SDS011;9354;50.194;7.690;2024-01-25T06:27:35;30.77;;;3.43;;
18449;SDS011;9354;50.194;7.690;2024-01-25T06:30:03;32.03;;;4.80;;
18449;SDS011;9354;50.194;7.690;2024-01-25T06:32:31;34.80;;;6.67;;
18449;SDS011;9354;50.194;7.690;2024-01-25T06:34:59;36.10;;;7.03;;
18449;SDS011;9354;50.194;7.690;2024-01-25T06:37:26;43.33;;;10.33;;
18449;SDS011;9354;50.194;7.690;2024-01-25T06:39:54;39.17;;;5.77;;
18449;SDS011;9354;50.194;7.690;2024-01-25T06:42:22;26.10;;;4.60;;
18449;SDS011;9354;50.194;7.690;2024-01-25T06:44:50;20.23;;;4.60;;
18449;SDS011;9354;50.194;7.690;2024-01-25T06:47:17;67.63;;;16.50;;
18449;SDS011;9354;50.194;7.690;2024-01-25T06:49:44;57.60;;;13.37;;
18449;SDS011;9354;50.194;7.690;2024-01-25T06:52:14;71.43;;;18.70;;
18449;SDS011;9354;50.194;7.690;2024-01-25T06:54:42;39.37;;;9.20;;
18449;SDS011;9354;50.194;7.690;2024-01-25T06:57:09;32.60;;;5.33;;
18449;SDS011;9354;50.194;7.690;2024-01-25T06:59:38;33.63;;;5.03;;
18449;SDS011;9354;50.194;7.690;2024-01-25T07:02:05;34.03;;;4.00;;
18449;SDS011;9354;50.194;7.690;2024-01-25T07:04:33;28.83;;;4.70;;
18449;SDS011;9354;50.194;7.690;2024-01-25T07:07:00;33.10;;;5.97;;
18449;SDS011;9354;50.194;7.690;2024-01-25T07:09:28;28.77;;;5.43;;
18449;SDS011;9354;50.194;7.690;2024-01-25T07:11:55;27.00;;;3.90;;
18449;SDS011;9354;50.194;7.690;2024-01-25T07:14:23;35.60;;;4.97;;
18449;SDS011;9354;50.194;7.690;2024-01-25T07:16:51;32.30;;;4.53;;
18449;SDS011;9354;50.194;7.690;2024-01-25T07:19:19;33.10;;;4.53;;
18449;SDS011;9354;50.194;7.690;2024-01-25T07:21:46;26.83;;;5.23;;
18449;SDS011;9354;50.194;7.690;2024-01-25T07:24:14;28.63;;;4.43;;
18449;SDS011;9354;50.194;7.690;2024-01-25T07:26:41;33.87;;;4.83;;
18449;SDS011;9354;50.194;7.690;2024-01-25T07:29:08;26.27;;;4.40;;
18449;SDS011;9354;50.194;7.690;2024-01-25T07:31:36;22.83;;;3.50;;
18449;SDS011;9354;50.194;7.690;2024-01-25T07:34:05;28.73;;;4.27;;
18449;SDS011;9354;50.194;7.690;2024-01-25T07:36:32;34.17;;;3.80;;
18449;SDS011;9354;50.194;7.690;2024-01-25T07:38:59;39.50;;;4.27;;
18449;SDS011;9354;50.194;7.690;2024-01-25T07:41:28;31.37;;;4.93;;
18449;SDS011;9354;50.194;7.690;2024-01-25T07:43:55;41.60;;;6.33;;
18449;SDS011;9354;50.194;7.690;2024-01-25T07:46:23;38.47;;;10.07;;
18449;SDS011;9354;50.194;7.690;2024-01-25T07:48:50;38.07;;;10.20;;
18449;SDS011;9354;50.194;7.690;2024-01-25T07:51:19;42.07;;;7.83;;
18449;SDS011;9354;50.194;7.690;2024-01-25T07:53:46;32.83;;;6.60;;
18449;SDS011;9354;50.194;7.690;2024-01-25T07:56:14;44.00;;;6.60;;
18449;SDS011;9354;50.194;7.690;2024-01-25T07:58:41;32.33;;;6.17;;
18449;SDS011;9354;50.194;7.690;2024-01-25T08:01:08;30.93;;;8.13;;
18449;SDS011;9354;50.194;7.690;2024-01-25T08:03:36;39.50;;;7.10;;
18449;SDS011;9354;50.194;7.690;2024-01-25T08:06:03;31.33;;;4.87;;
18449;SDS011;9354;50.194;7.690;2024-01-25T08:08:32;35.67;;;4.97;;
18449;SDS011;9354;50.194;7.690;2024-01-25T08:11:00;23.00;;;5.90;;
18449;SDS011;9354;50.194;7.690;2024-01-25T08:13:29;24.43;;;5.57;;
18449;SDS011;9354;50.194;7.690;2024-01-25T08:15:57;31.40;;;4.60;;
18449;SDS011;9354;50.194;7.690;2024-01-25T08:18:24;32.07;;;4.50;;
18449;SDS011;9354;50.194;7.690;2024-01-25T08:20:54;29.67;;;5.10;;
18449;SDS011;9354;50.194;7.690;2024-01-25T08:23:22;33.57;;;6.93;;
18449;SDS011;9354;50.194;7.690;2024-01-25T08:25:51;39.27;;;7.13;;
18449;SDS011;9354;50.194;7.690;2024-01-25T08:28:18;26.23;;;5.47;;
18449;SDS011;9354;50.194;7.690;2024-01-25T08:30:47;37.30;;;7.83;;
18449;SDS011;9354;50.194;7.690;2024-01-25T08:33:14;31.83;;;6.43;;
18449;SDS011;9354;50.194;7.690;2024-01-25T08:35:42;35.43;;;6.83;;
18449;SDS011;9354;50.194;7.690;2024-01-25T08:38:09;38.60;;;10.20;;
18449;SDS011;9354;50.194;7.690;2024-01-25T08:40:37;42.03;;;11.77;;
18449;SDS011;9354;50.194;7.690;2024-01-25T08:43:05;36.80;;;8.97;;
18449;SDS011;9354;50.194;7.690;2024-01-25T08:45:33;35.07;;;7.90;;
18449;SDS011;9354;50.194;7.690;2024-01-25T08:48:00;25.30;;;5.33;;
18449;SDS011;9354;50.194;7.690;2024-01-25T08:50:28;35.20;;;6.03;;
18449;SDS011;9354;50.194;7.690;2024-01-25T08:52:55;21.97;;;5.17;;
18449;SDS011;9354;50.194;7.690;2024-01-25T08:55:23;29.40;;;4.70;;
18449;SDS011;9354;50.194;7.690;2024-01-25T08:57:50;36.80;;;6.63;;
18449;SDS011;9354;50.194;7.690;2024-01-25T09:00:19;21.87;;;3.93;;
18449;SDS011;9354;50.194;7.690;2024-01-25T09:02:46;27.53;;;4.37;;
18449;SDS011;9354;50.194;7.690;2024-01-25T09:05:14;29.13;;;4.70;;
18449;SDS011;9354;50.194;7.690;2024-01-25T09:07:42;30.70;;;4.70;;
18449;SDS011;9354;50.194;7.690;2024-01-25T09:10:09;23.90;;;4.97;;
18449;SDS011;9354;50.194;7.690;2024-01-25T09:12:36;26.23;;;5.07;;
18449;SDS011;9354;50.194;7.690;2024-01-25T09:15:05;37.23;;;7.73;;
18449;SDS011;9354;50.194;7.690;2024-01-25T09:17:35;33.67;;;5.67;;
18449;SDS011;9354;50.194;7.690;2024-01-25T09:20:03;25.40;;;3.70;;
18449;SDS011;9354;50.194;7.690;2024-01-25T09:22:31;27.93;;;4.10;;
18449;SDS011;9354;50.194;7.690;2024-01-25T09:24:59;28.00;;;4.43;;
18449;SDS011;9354;50.194;7.690;2024-01-25T09:27:26;24.03;;;3.77;;
18449;SDS011;9354;50.194;7.690;2024-01-25T09:29:54;32.73;;;4.90;;
18449;SDS011;9354;50.194;7.690;2024-01-25T09:32:21;27.80;;;4.43;;
18449;SDS011;9354;50.194;7.690;2024-01-25T09:34:50;26.13;;;4.57;;
18449;SDS011;9354;50.194;7.690;2024-01-25T09:37:17;17.27;;;3.47;;
18449;SDS011;9354;50.194;7.690;2024-01-25T09:39:46;31.57;;;4.10;;
18449;SDS011;9354;50.194;7.690;2024-01-25T09:42:13;37.87;;;5.00;;
18449;SDS011;9354;50.194;7.690;2024-01-25T09:44:40;31.03;;;4.33;;
18449;SDS011;9354;50.194;7.690;2024-01-25T09:47:09;27.67;;;5.53;;
18449;SDS011;9354;50.194;7.690;2024-01-25T09:49:38;36.97;;;5.73;;
18449;SDS011;9354;50.194;7.690;2024-01-25T09:52:06;29.57;;;4.87;;
18449;SDS011;9354;50.194;7.690;2024-01-25T09:54:38;32.07;;;4.23;;
18449;SDS011;9354;50.194;7.690;2024-01-25T09:57:08;21.00;;;4.13;;
18449;SDS011;9354;50.194;7.690;2024-01-25T09:59:41;25.43;;;3.97;;
18449;SDS011;9354;50.194;7.690;2024-01-25T10:02:09;27.37;;;4.23;;
18449;SDS011;9354;50.194;7.690;2024-01-25T10:04:37;32.97;;;4.77;;
18449;SDS011;9354;50.194;7.690;2024-01-25T10:07:04;26.07;;;4.37;;
18449;SDS011;9354;50.194;7.690;2024-01-25T10:09:40;25.33;;;4.97;;
18449;SDS011;9354;50.194;7.690;2024-01-25T10:12:08;27.57;;;4.17;;
18449;SDS011;9354;50.194;7.690;2024-01-25T10:14:36;26.33;;;4.00;;
18449;SDS011;9354;50.194;7.690;2024-01-25T10:17:03;21.47;;;3.80;;
18449;SDS011;9354;50.194;7.690;2024-01-25T10:19:31;34.60;;;4.37;;
18449;SDS011;9354;50.194;7.690;2024-01-25T10:21:58;31.17;;;4.27;;
18449;SDS011;9354;50.194;7.690;2024-01-25T10:24:26;24.73;;;4.10;;
18449;SDS011;9354;50.194;7.690;2024-01-25T10:26:55;23.57;;;4.60;;
18449;SDS011;9354;50.194;7.690;2024-01-25T10:29:24;20.77;;;4.30;;
18449;SDS011;9354;50.194;7.690;2024-01-25T10:31:52;26.40;;;4.90;;
18449;SDS011;9354;50.194;7.690;2024-01-25T10:34:20;28.83;;;3.87;;
18449;SDS011;9354;50.194;7.690;2024-01-25T10:36:50;31.07;;;4.73;;
18449;SDS011;9354;50.194;7.690;2024-01-25T10:39:18;30.30;;;4.50;;
18449;SDS011;9354;50.194;7.690;2024-01-25T10:41:48;28.50;;;4.47;;
18449;SDS011;9354;50.194;7.690;2024-01-25T10:44:17;22.73;;;3.67;;
18449;SDS011;9354;50.194;7.690;2024-01-25T10:46:46;26.27;;;4.43;;
18449;SDS011;9354;50.194;7.690;2024-01-25T10:49:14;22.70;;;3.87;;
18449;SDS011;9354;50.194;7.690;2024-01-25T10:51:44;16.43;;;3.70;;
18449;SDS011;9354;50.194;7.690;2024-01-25T10:54:12;30.40;;;6.10;;
18449;SDS011;9354;50.194;7.690;2024-01-25T10:56:41;28.63;;;3.90;;
18449;SDS011;9354;50.194;7.690;2024-01-25T10:59:08;27.13;;;4.63;;
18449;SDS011;9354;50.194;7.690;2024-01-25T11:01:39;30.80;;;4.47;;
18449;SDS011;9354;50.194;7.690;2024-01-25T11:04:12;27.97;;;4.50;;
18449;SDS011;9354;50.194;7.690;2024-01-25T11:06:43;28.47;;;4.00;;
18449;SDS011;9354;50.194;7.690;2024-01-25T11:09:15;25.03;;;4.07;;
18449;SDS011;9354;50.194;7.690;2024-01-25T11:11:44;23.27;;;3.70;;
18449;SDS011;9354;50.194;7.690;2024-01-25T11:14:14;25.97;;;4.20;;
18449;SDS011;9354;50.194;7.690;2024-01-25T11:16:44;25.27;;;3.73;;
18449;SDS011;9354;50.194;7.690;2024-01-25T11:19:16;23.70;;;4.33;;
18449;SDS011;9354;50.194;7.690;2024-01-25T11:21:44;26.67;;;4.03;;
18449;SDS011;9354;50.194;7.690;2024-01-25T11:24:13;24.60;;;4.67;;
18449;SDS011;9354;50.194;7.690;2024-01-25T11:26:42;26.60;;;4.10;;
18449;SDS011;9354;50.194;7.690;2024-01-25T11:29:10;21.87;;;3.93;;
18449;SDS011;9354;50.194;7.690;2024-01-25T11:31:41;20.13;;;3.70;;
18449;SDS011;9354;50.194;7.690;2024-01-25T11:34:11;21.80;;;4.23;;
18449;SDS011;9354;50.194;7.690;2024-01-25T11:36:40;19.90;;;3.40;;
18449;SDS011;9354;50.194;7.690;2024-01-25T11:39:08;33.67;;;3.77;;
18449;SDS011;9354;50.194;7.690;2024-01-25T11:41:36;20.93;;;3.90;;
18449;SDS011;9354;50.194;7.690;2024-01-25T11:44:04;21.37;;;3.63;;
18449;SDS011;9354;50.194;7.690;2024-01-25T11:46:32;20.93;;;4.30;;
18449;SDS011;9354;50.194;7.690;2024-01-25T11:48:59;22.80;;;4.00;;
18449;SDS011;9354;50.194;7.690;2024-01-25T11:51:28;24.10;;;4.10;;
18449;SDS011;9354;50.194;7.690;2024-01-25T11:53:56;27.93;;;3.83;;
18449;SDS011;9354;50.194;7.690;2024-01-25T11:56:24;22.13;;;5.40;;
18449;SDS011;9354;50.194;7.690;2024-01-25T11:58:54;34.73;;;5.87;;
18449;SDS011;9354;50.194;7.690;2024-01-25T12:01:22;21.27;;;4.20;;
18449;SDS011;9354;50.194;7.690;2024-01-25T12:03:50;19.80;;;4.50;;
18449;SDS011;9354;50.194;7.690;2024-01-25T12:06:18;20.43;;;4.03;;
18449;SDS011;9354;50.194;7.690;2024-01-25T12:08:47;20.00;;;4.23;;
18449;SDS011;9354;50.194;7.690;2024-01-25T12:11:16;29.63;;;3.93;;
18449;SDS011;9354;50.194;7.690;2024-01-25T12:13:44;18.17;;;4.10;;
18449;SDS011;9354;50.194;7.690;2024-01-25T12:16:12;25.87;;;3.83;;
18449;SDS011;9354;50.194;7.690;2024-01-25T12:18:42;23.23;;;3.97;;
18449;SDS011;9354;50.194;7.690;2024-01-25T12:21:10;25.63;;;4.63;;
18449;SDS011;9354;50.194;7.690;2024-01-25T12:23:38;26.47;;;3.33;;
18449;SDS011;9354;50.194;7.690;2024-01-25T12:26:07;20.27;;;3.93;;
18449;SDS011;9354;50.194;7.690;2024-01-25T12:28:36;22.97;;;4.00;;
18449;SDS011;9354;50.194;7.690;2024-01-25T12:31:04;21.37;;;4.17;;
18449;SDS011;9354;50.194;7.690;2024-01-25T12:33:33;22.97;;;3.07;;
18449;SDS011;9354;50.194;7.690;2024-01-25T12:36:01;19.17;;;3.00;;
18449;SDS011;9354;50.194;7.690;2024-01-25T12:38:29;20.70;;;3.67;;
18449;SDS011;9354;50.194;7.690;2024-01-25T12:40:59;16.57;;;2.93;;
18449;SDS011;9354;50.194;7.690;2024-01-25T12:43:29;22.97;;;3.73;;
18449;SDS011;9354;50.194;7.690;2024-01-25T12:45:57;21.23;;;3.37;;
18449;SDS011;9354;50.194;7.690;2024-01-25T12:48:24;12.73;;;3.17;;
18449;SDS011;9354;50.194;7.690;2024-01-25T12:50:51;21.30;;;3.73;;
18449;SDS011;9354;50.194;7.690;2024-01-25T12:53:19;21.43;;;3.77;;
18449;SDS011;9354;50.194;7.690;2024-01-25T12:55:46;19.00;;;3.17;;
18449;SDS011;9354;50.194;7.690;2024-01-25T12:58:14;26.80;;;4.10;;
18449;SDS011;9354;50.194;7.690;2024-01-25T13:00:42;22.97;;;3.83;;
18449;SDS011;9354;50.194;7.690;2024-01-25T13:03:11;20.63;;;3.83;;
18449;SDS011;9354;50.194;7.690;2024-01-25T13:05:40;36.10;;;9.67;;
18449;SDS011;9354;50.194;7.690;2024-01-25T13:08:07;28.17;;;4.23;;
18449;SDS011;9354;50.194;7.690;2024-01-25T13:10:35;22.67;;;3.90;;
18449;SDS011;9354;50.194;7.690;2024-01-25T13:13:02;25.63;;;3.97;;
18449;SDS011;9354;50.194;7.690;2024-01-25T13:15:31;23.23;;;3.57;;
18449;SDS011;9354;50.194;7.690;2024-01-25T13:18:00;33.90;;;7.50;;
18449;SDS011;9354;50.194;7.690;2024-01-25T13:20:27;21.50;;;3.77;;
18449;SDS011;9354;50.194;7.690;2024-01-25T13:22:55;27.33;;;3.63;;
18449;SDS011;9354;50.194;7.690;2024-01-25T13:25:22;16.53;;;3.33;;
18449;SDS011;9354;50.194;7.690;2024-01-25T13:27:49;27.03;;;5.57;;
18449;SDS011;9354;50.194;7.690;2024-01-25T13:30:17;16.63;;;2.70;;
18449;SDS011;9354;50.194;7.690;2024-01-25T13:32:44;17.23;;;3.23;;
18449;SDS011;9354;50.194;7.690;2024-01-25T13:35:13;15.60;;;3.43;;
18449;SDS011;9354;50.194;7.690;2024-01-25T13:37:40;25.47;;;3.87;;
18449;SDS011;9354;50.194;7.690;2024-01-25T13:40:08;21.17;;;3.63;;
18449;SDS011;9354;50.194;7.690;2024-01-25T13:42:36;21.63;;;3.50;;
18449;SDS011;9354;50.194;7.690;2024-01-25T13:45:05;16.70;;;3.30;;
18449;SDS011;9354;50.194;7.690;2024-01-25T13:47:33;26.73;;;4.30;;
18449;SDS011;9354;50.194;7.690;2024-01-25T13:50:01;22.87;;;3.50;;
18449;SDS011;9354;50.194;7.690;2024-01-25T13:52:29;20.87;;;3.20;;
18449;SDS011;9354;50.194;7.690;2024-01-25T13:54:57;25.67;;;4.83;;
18449;SDS011;9354;50.194;7.690;2024-01-25T13:57:24;19.10;;;3.33;;
18449;SDS011;9354;50.194;7.690;2024-01-25T13:59:52;22.80;;;3.80;;
18449;SDS011;9354;50.194;7.690;2024-01-25T14:02:19;23.03;;;3.93;;
18449;SDS011;9354;50.194;7.690;2024-01-25T14:04:46;15.53;;;3.43;;
18449;SDS011;9354;50.194;7.690;2024-01-25T14:07:15;22.00;;;3.03;;
18449;SDS011;9354;50.194;7.690;2024-01-25T14:09:44;19.53;;;3.70;;
18449;SDS011;9354;50.194;7.690;2024-01-25T14:12:11;19.90;;;3.50;;
18449;SDS011;9354;50.194;7.690;2024-01-25T14:14:38;23.43;;;4.33;;
18449;SDS011;9354;50.194;7.690;2024-01-25T14:17:06;26.17;;;3.73;;
18449;SDS011;9354;50.194;7.690;2024-01-25T14:19:33;17.60;;;3.10;;
18449;SDS011;9354;50.194;7.690;2024-01-25T14:22:01;22.90;;;3.20;;
18449;SDS011;9354;50.194;7.690;2024-01-25T14:24:28;23.13;;;3.50;;
18449;SDS011;9354;50.194;7.690;2024-01-25T14:26:57;21.27;;;3.43;;
18449;SDS011;9354;50.194;7.690;2024-01-25T14:29:24;20.53;;;3.23;;
18449;SDS011;9354;50.194;7.690;2024-01-25T14:31:55;21.93;;;3.50;;
18449;SDS011;9354;50.194;7.690;2024-01-25T14:34:23;21.23;;;3.57;;
18449;SDS011;9354;50.194;7.690;2024-01-25T14:36:51;24.03;;;3.53;;
18449;SDS011;9354;50.194;7.690;2024-01-25T14:39:19;19.23;;;3.83;;
18449;SDS011;9354;50.194;7.690;2024-01-25T14:41:46;19.87;;;3.10;;
18449;SDS011;9354;50.194;7.690;2024-01-25T14:44:15;20.47;;;3.67;;
18449;SDS011;9354;50.194;7.690;2024-01-25T14:46:43;21.10;;;3.43;;
18449;SDS011;9354;50.194;7.690;2024-01-25T14:49:10;17.77;;;4.30;;
18449;SDS011;9354;50.194;7.690;2024-01-25T14:51:38;27.90;;;4.47;;